sensor_id;sensor_type;location;lat;lon;timestamp;P1;durP1;ratioP1;P2;durP2;ratioP2
20000;SDS011;10161;41.188;-8.642;2024-03-08T00:02:04;4.17;;;3.47;;
20000;SDS011;10161;41.188;-8.642;2024-03-08T00:04:31;4.67;;;4.10;;
20000;SDS011;10161;41.188;-8.642;2024-03-08T00:06:58;5.57;;;4.50;;
20000;SDS011;10161;41.188;-8.642;2024-03-08T00:09:26;5.57;;;4.93;;
20000;SDS011;10161;41.188;-8.642;2024-03-08T00:11:53;6.80;;;5.17;;
20000;SDS011;10161;41.188;-8.642;2024-03-08T00:14:20;7.40;;;6.27;;
20000;SDS011;10161;41.188;-8.642;2024-03-08T00:16:47;6.97;;;5.87;;
20000;SDS011;10161;41.188;-8.642;2024-03-08T00:19:14;6.10;;;5.50;;
20000;SDS011;10161;41.188;-8.642;2024-03-08T00:21:41;6.03;;;5.43;;
20000;SDS011;10161;41.188;-8.642;2024-03-08T00:24:08;6.67;;;5.97;;
20000;SDS011;10161;41.188;-8.642;2024-03-08T00:26:36;5.50;;;5.00;;
20000;SDS011;10161;41.188;-8.642;2024-03-08T00:29:03;6.83;;;5.50;;
20000;SDS011;10161;41.188;-8.642;2024-03-08T00:31:33;6.13;;;5.53;;
20000;SDS011;10161;41.188;-8.642;2024-03-08T00:34:00;6.07;;;5.47;;
20000;SDS011;10161;41.188;-8.642;2024-03-08T00:36:27;6.37;;;5.57;;
20000;SDS011;10161;41.188;-8.642;2024-03-08T00:38:55;5.97;;;5.27;;
20000;SDS011;10161;41.188;-8.642;2024-03-08T00:41:22;5.90;;;5.30;;
20000;SDS011;10161;41.188;-8.642;2024-03-08T00:43:53;5.90;;;5.30;;
20000;SDS011;10161;41.188;-8.642;2024-03-08T00:46:19;6.80;;;5.83;;
20000;SDS011;10161;41.188;-8.642;2024-03-08T00:48:47;6.03;;;5.10;;
20000;SDS011;10161;41.188;-8.642;2024-03-08T00:51:14;6.20;;;5.57;;
20000;SDS011;10161;41.188;-8.642;2024-03-08T00:53:41;7.13;;;5.80;;
20000;SDS011;10161;41.188;-8.642;2024-03-08T00:56:08;6.13;;;5.53;;
20000;SDS011;10161;41.188;-8.642;2024-03-08T00:58:36;6.83;;;5.70;;
20000;SDS011;10161;41.188;-8.642;2024-03-08T01:01:06;6.37;;;4.93;;
20000;SDS011;10161;41.188;-8.642;2024-03-08T01:03:33;4.93;;;4.43;;
20000;SDS011;10161;41.188;-8.642;2024-03-08T01:06:00;5.30;;;4.80;;
20000;SDS011;10161;41.188;-8.642;2024-03-08T01:08:27;5.60;;;4.60;;
20000;SDS011;10161;41.188;-8.642;2024-03-08T01:10:54;5.73;;;4.83;;
20000;SDS011;10161;41.188;-8.642;2024-03-08T01:13:21;5.77;;;4.73;;
20000;SDS011;10161;41.188;-8.642;2024-03-08T01:15:48;6.43;;;5.30;;
20000;SDS011;10161;41.188;-8.642;2024-03-08T01:18:17;6.67;;;5.20;;
20000;SDS011;10161;41.188;-8.642;2024-03-08T01:20:45;6.63;;;5.10;;
20000;SDS011;10161;41.188;-8.642;2024-03-08T01:23:12;4.77;;;4.07;;
20000;SDS011;10161;41.188;-8.642;2024-03-08T01:25:39;4.90;;;4.40;;
20000;SDS011;10161;41.188;-8.642;2024-03-08T01:28:06;5.53;;;4.50;;
20000;SDS011;10161;41.188;-8.642;2024-03-08T01:30:34;5.23;;;4.60;;
20000;SDS011;10161;41.188;-8.642;2024-03-08T01:33:02;4.77;;;4.33;;
20000;SDS011;10161;41.188;-8.642;2024-03-08T01:35:30;4.80;;;4.30;;
20000;SDS011;10161;41.188;-8.642;2024-03-08T01:37:57;4.33;;;3.93;;
20000;SDS011;10161;41.188;-8.642;2024-03-08T01:40:24;4.47;;;4.07;;
20000;SDS011;10161;41.188;-8.642;2024-03-08T01:42:51;5.27;;;4.33;;
20000;SDS011;10161;41.188;-8.642;2024-03-08T01:45:19;5.70;;;3.80;;
20000;SDS011;10161;41.188;-8.642;2024-03-08T01:47:46;3.97;;;3.40;;
20000;SDS011;10161;41.188;-8.642;2024-03-08T01:50:13;5.10;;;3.50;;
20000;SDS011;10161;41.188;-8.642;2024-03-08T01:52:42;3.83;;;3.40;;
20000;SDS011;10161;41.188;-8.642;2024-03-08T01:55:10;4.50;;;3.60;;
20000;SDS011;10161;41.188;-8.642;2024-03-08T01:57:39;5.67;;;4.00;;
20000;SDS011;10161;41.188;-8.642;2024-03-08T02:00:07;4.07;;;3.30;;
20000;SDS011;10161;41.188;-8.642;2024-03-08T02:02:36;5.50;;;3.37;;
20000;SDS011;10161;41.188;-8.642;2024-03-08T02:05:04;5.13;;;3.50;;
20000;SDS011;10161;41.188;-8.642;2024-03-08T02:07:31;5.03;;;2.97;;
20000;SDS011;10161;41.188;-8.642;2024-03-08T02:10:00;4.43;;;2.90;;
20000;SDS011;10161;41.188;-8.642;2024-03-08T02:12:27;5.23;;;3.03;;
20000;SDS011;10161;41.188;-8.642;2024-03-08T02:14:54;6.97;;;3.67;;
20000;SDS011;10161;41.188;-8.642;2024-03-08T02:17:21;3.00;;;2.70;;
20000;SDS011;10161;41.188;-8.642;2024-03-08T02:19:48;3.43;;;2.87;;
20000;SDS011;10161;41.188;-8.642;2024-03-08T02:22:17;4.00;;;2.80;;
20000;SDS011;10161;41.188;-8.642;2024-03-08T02:24:44;3.40;;;2.53;;
20000;SDS011;10161;41.188;-8.642;2024-03-08T02:27:11;2.97;;;2.73;;
20000;SDS011;10161;41.188;-8.642;2024-03-08T02:29:38;3.40;;;2.60;;
20000;SDS011;10161;41.188;-8.642;2024-03-08T02:32:06;5.83;;;2.50;;
20000;SDS011;10161;41.188;-8.642;2024-03-08T02:34:33;4.77;;;3.27;;
20000;SDS011;10161;41.188;-8.642;2024-03-08T02:37:00;4.93;;;2.50;;
20000;SDS011;10161;41.188;-8.642;2024-03-08T02:39:28;3.27;;;2.43;;
20000;SDS011;10161;41.188;-8.642;2024-03-08T02:41:57;3.30;;;2.40;;
20000;SDS011;10161;41.188;-8.642;2024-03-08T02:44:24;3.67;;;2.70;;
20000;SDS011;10161;41.188;-8.642;2024-03-08T02:46:51;2.93;;;2.30;;
20000;SDS011;10161;41.188;-8.642;2024-03-08T02:49:20;2.47;;;1.90;;
20000;SDS011;10161;41.188;-8.642;2024-03-08T02:51:47;4.27;;;2.40;;
20000;SDS011;10161;41.188;-8.642;2024-03-08T02:54:14;3.40;;;2.27;;
20000;SDS011;10161;41.188;-8.642;2024-03-08T02:56:44;3.90;;;2.53;;
20000;SDS011;10161;41.188;-8.642;2024-03-08T02:59:11;4.20;;;2.13;;
20000;SDS011;10161;41.188;-8.642;2024-03-08T03:01:39;4.57;;;2.60;;
20000;SDS011;10161;41.188;-8.642;2024-03-08T03:04:06;3.17;;;2.20;;
20000;SDS011;10161;41.188;-8.642;2024-03-08T03:06:33;5.10;;;2.70;;
20000;SDS011;10161;41.188;-8.642;2024-03-08T03:09:00;4.80;;;2.60;;
20000;SDS011;10161;41.188;-8.642;2024-03-08T03:11:28;3.70;;;2.40;;
20000;SDS011;10161;41.188;-8.642;2024-03-08T03:13:57;5.83;;;2.50;;
20000;SDS011;10161;41.188;-8.642;2024-03-08T03:16:24;3.57;;;2.67;;
20000;SDS011;10161;41.188;-8.642;2024-03-08T03:18:51;4.80;;;2.33;;
20000;SDS011;10161;41.188;-8.642;2024-03-08T03:21:18;5.10;;;2.40;;
20000;SDS011;10161;41.188;-8.642;2024-03-08T03:23:45;3.97;;;2.13;;
20000;SDS011;10161;41.188;-8.642;2024-03-08T03:26:13;3.57;;;2.27;;
20000;SDS011;10161;41.188;-8.642;2024-03-08T03:28:42;4.70;;;2.40;;
20000;SDS011;10161;41.188;-8.642;2024-03-08T03:31:11;4.00;;;2.50;;
20000;SDS011;10161;41.188;-8.642;2024-03-08T03:33:39;2.93;;;2.23;;
20000;SDS011;10161;41.188;-8.642;2024-03-08T03:36:06;4.87;;;2.97;;
20000;SDS011;10161;41.188;-8.642;2024-03-08T03:38:35;4.03;;;2.27;;
20000;SDS011;10161;41.188;-8.642;2024-03-08T03:41:02;4.10;;;2.60;;
20000;SDS011;10161;41.188;-8.642;2024-03-08T03:43:35;4.03;;;2.43;;
20000;SDS011;10161;41.188;-8.642;2024-03-08T03:46:05;3.90;;;1.90;;
20000;SDS011;10161;41.188;-8.642;2024-03-08T03:48:34;5.60;;;2.80;;
20000;SDS011;10161;41.188;-8.642;2024-03-08T03:51:01;4.80;;;2.73;;
20000;SDS011;10161;41.188;-8.642;2024-03-08T03:53:29;3.97;;;2.43;;
20000;SDS011;10161;41.188;-8.642;2024-03-08T03:55:56;3.50;;;2.37;;
20000;SDS011;10161;41.188;-8.642;2024-03-08T03:58:24;4.90;;;2.90;;
20000;SDS011;10161;41.188;-8.642;2024-03-08T04:00:52;4.20;;;2.47;;
20000;SDS011;10161;41.188;-8.642;2024-03-08T04:03:19;4.17;;;2.03;;
20000;SDS011;10161;41.188;-8.642;2024-03-08T04:05:47;3.40;;;2.00;;
20000;SDS011;10161;41.188;-8.642;2024-03-08T04:08:14;2.80;;;1.97;;
20000;SDS011;10161;41.188;-8.642;2024-03-08T04:10:42;4.83;;;2.47;;
20000;SDS011;10161;41.188;-8.642;2024-03-08T04:13:09;4.00;;;2.40;;
20000;SDS011;10161;41.188;-8.642;2024-03-08T04:15:36;4.60;;;2.70;;
20000;SDS011;10161;41.188;-8.642;2024-03-08T04:18:03;4.33;;;2.53;;
20000;SDS011;10161;41.188;-8.642;2024-03-08T04:20:31;5.83;;;2.73;;
20000;SDS011;10161;41.188;-8.642;2024-03-08T04:22:59;4.23;;;2.00;;
20000;SDS011;10161;41.188;-8.642;2024-03-08T04:25:26;3.10;;;1.90;;
20000;SDS011;10161;41.188;-8.642;2024-03-08T04:27:53;3.83;;;2.27;;
20000;SDS011;10161;41.188;-8.642;2024-03-08T04:30:20;3.97;;;2.10;;
20000;SDS011;10161;41.188;-8.642;2024-03-08T04:32:47;5.20;;;2.40;;
20000;SDS011;10161;41.188;-8.642;2024-03-08T04:35:15;3.93;;;1.77;;
20000;SDS011;10161;41.188;-8.642;2024-03-08T04:37:42;4.27;;;2.20;;
20000;SDS011;10161;41.188;-8.642;2024-03-08T04:40:12;3.73;;;2.00;;
20000;SDS011;10161;41.188;-8.642;2024-03-08T04:42:39;4.70;;;2.90;;
20000;SDS011;10161;41.188;-8.642;2024-03-08T04:45:06;3.50;;;2.00;;
20000;SDS011;10161;41.188;-8.642;2024-03-08T04:47:36;3.57;;;1.93;;
20000;SDS011;10161;41.188;-8.642;2024-03-08T04:50:03;3.93;;;2.03;;
20000;SDS011;10161;41.188;-8.642;2024-03-08T04:52:31;3.07;;;2.00;;
20000;SDS011;10161;41.188;-8.642;2024-03-08T04:54:58;4.27;;;2.13;;
20000;SDS011;10161;41.188;-8.642;2024-03-08T04:57:26;5.43;;;2.30;;
20000;SDS011;10161;41.188;-8.642;2024-03-08T04:59:53;4.47;;;2.07;;
20000;SDS011;10161;41.188;-8.642;2024-03-08T05:02:20;3.50;;;2.03;;
20000;SDS011;10161;41.188;-8.642;2024-03-08T05:04:48;5.70;;;2.27;;
20000;SDS011;10161;41.188;-8.642;2024-03-08T05:07:16;4.80;;;2.30;;
20000;SDS011;10161;41.188;-8.642;2024-03-08T05:09:42;3.67;;;1.83;;
20000;SDS011;10161;41.188;-8.642;2024-03-08T05:12:16;2.87;;;1.90;;
20000;SDS011;10161;41.188;-8.642;2024-03-08T05:14:45;5.73;;;2.90;;
20000;SDS011;10161;41.188;-8.642;2024-03-08T05:17:15;4.73;;;2.07;;
20000;SDS011;10161;41.188;-8.642;2024-03-08T05:19:42;4.70;;;2.43;;
20000;SDS011;10161;41.188;-8.642;2024-03-08T05:22:09;4.43;;;2.37;;
20000;SDS011;10161;41.188;-8.642;2024-03-08T05:24:36;3.77;;;2.13;;
20000;SDS011;10161;41.188;-8.642;2024-03-08T05:27:03;4.73;;;2.43;;
20000;SDS011;10161;41.188;-8.642;2024-03-08T05:29:31;4.23;;;2.20;;
20000;SDS011;10161;41.188;-8.642;2024-03-08T05:32:00;3.80;;;1.87;;
20000;SDS011;10161;41.188;-8.642;2024-03-08T05:34:28;3.00;;;1.93;;
20000;SDS011;10161;41.188;-8.642;2024-03-08T05:36:55;2.80;;;1.90;;
20000;SDS011;10161;41.188;-8.642;2024-03-08T05:39:23;5.23;;;2.40;;
20000;SDS011;10161;41.188;-8.642;2024-03-08T05:41:50;2.90;;;1.90;;
20000;SDS011;10161;41.188;-8.642;2024-03-08T05:44:17;4.47;;;2.60;;
20000;SDS011;10161;41.188;-8.642;2024-03-08T05:46:44;3.97;;;2.20;;
20000;SDS011;10161;41.188;-8.642;2024-03-08T05:49:13;4.40;;;2.50;;
20000;SDS011;10161;41.188;-8.642;2024-03-08T05:51:40;4.47;;;2.30;;
20000;SDS011;10161;41.188;-8.642;2024-03-08T05:54:08;3.87;;;2.37;;
20000;SDS011;10161;41.188;-8.642;2024-03-08T05:56:36;3.20;;;2.20;;
20000;SDS011;10161;41.188;-8.642;2024-03-08T05:59:03;3.10;;;2.07;;
20000;SDS011;10161;41.188;-8.642;2024-03-08T06:01:30;2.93;;;1.80;;
20000;SDS011;10161;41.188;-8.642;2024-03-08T06:03:58;3.83;;;2.03;;
20000;SDS011;10161;41.188;-8.642;2024-03-08T06:06:26;3.40;;;1.87;;
20000;SDS011;10161;41.188;-8.642;2024-03-08T06:08:53;3.60;;;2.00;;
20000;SDS011;10161;41.188;-8.642;2024-03-08T06:11:21;3.23;;;2.00;;
20000;SDS011;10161;41.188;-8.642;2024-03-08T06:13:48;3.80;;;2.20;;
20000;SDS011;10161;41.188;-8.642;2024-03-08T06:16:15;4.00;;;2.23;;
20000;SDS011;10161;41.188;-8.642;2024-03-08T06:18:43;3.30;;;2.00;;
20000;SDS011;10161;41.188;-8.642;2024-03-08T06:21:09;2.73;;;1.97;;
20000;SDS011;10161;41.188;-8.642;2024-03-08T06:23:39;2.83;;;1.77;;
20000;SDS011;10161;41.188;-8.642;2024-03-08T06:26:06;4.23;;;2.00;;
20000;SDS011;10161;41.188;-8.642;2024-03-08T06:28:34;4.53;;;2.30;;
20000;SDS011;10161;41.188;-8.642;2024-03-08T06:31:01;3.27;;;1.70;;
20000;SDS011;10161;41.188;-8.642;2024-03-08T06:33:28;4.03;;;1.97;;
20000;SDS011;10161;41.188;-8.642;2024-03-08T06:35:55;3.27;;;2.10;;
20000;SDS011;10161;41.188;-8.642;2024-03-08T06:38:23;3.17;;;2.13;;
20000;SDS011;10161;41.188;-8.642;2024-03-08T06:40:51;5.17;;;1.90;;
20000;SDS011;10161;41.188;-8.642;2024-03-08T06:43:19;2.50;;;1.97;;
20000;SDS011;10161;41.188;-8.642;2024-03-08T06:45:46;4.23;;;1.97;;
20000;SDS011;10161;41.188;-8.642;2024-03-08T06:48:14;2.70;;;1.70;;
20000;SDS011;10161;41.188;-8.642;2024-03-08T06:50:42;4.47;;;2.00;;
20000;SDS011;10161;41.188;-8.642;2024-03-08T06:53:10;3.03;;;1.90;;
20000;SDS011;10161;41.188;-8.642;2024-03-08T06:55:37;3.10;;;2.03;;
20000;SDS011;10161;41.188;-8.642;2024-03-08T06:58:06;4.50;;;2.33;;
20000;SDS011;10161;41.188;-8.642;2024-03-08T07:00:33;2.77;;;2.10;;
20000;SDS011;10161;41.188;-8.642;2024-03-08T07:03:01;3.90;;;2.20;;
20000;SDS011;10161;41.188;-8.642;2024-03-08T07:05:28;2.80;;;1.80;;
20000;SDS011;10161;41.188;-8.642;2024-03-08T07:07:55;3.60;;;2.10;;
20000;SDS011;10161;41.188;-8.642;2024-03-08T07:10:22;5.43;;;2.50;;
20000;SDS011;10161;41.188;-8.642;2024-03-08T07:12:49;4.03;;;2.10;;
20000;SDS011;10161;41.188;-8.642;2024-03-08T07:15:18;3.13;;;1.87;;
20000;SDS011;10161;41.188;-8.642;2024-03-08T07:17:46;2.97;;;2.00;;
20000;SDS011;10161;41.188;-8.642;2024-03-08T07:20:13;2.60;;;1.80;;
20000;SDS011;10161;41.188;-8.642;2024-03-08T07:22:44;3.87;;;1.93;;
20000;SDS011;10161;41.188;-8.642;2024-03-08T07:25:12;4.50;;;1.97;;
20000;SDS011;10161;41.188;-8.642;2024-03-08T07:27:46;4.07;;;2.00;;
20000;SDS011;10161;41.188;-8.642;2024-03-08T07:30:14;4.27;;;2.13;;
20000;SDS011;10161;41.188;-8.642;2024-03-08T07:33:04;5.17;;;2.67;;
20000;SDS011;10161;41.188;-8.642;2024-03-08T07:35:32;3.30;;;2.20;;
20000;SDS011;10161;41.188;-8.642;2024-03-08T07:38:02;3.40;;;2.20;;
20000;SDS011;10161;41.188;-8.642;2024-03-08T07:40:30;4.07;;;2.30;;
20000;SDS011;10161;41.188;-8.642;2024-03-08T07:42:58;3.80;;;2.37;;
20000;SDS011;10161;41.188;-8.642;2024-03-08T07:45:25;3.93;;;2.20;;
20000;SDS011;10161;41.188;-8.642;2024-03-08T07:47:52;2.80;;;2.10;;
20000;SDS011;10161;41.188;-8.642;2024-03-08T07:50:22;4.40;;;2.30;;
20000;SDS011;10161;41.188;-8.642;2024-03-08T07:52:49;2.97;;;2.37;;
20000;SDS011;10161;41.188;-8.642;2024-03-08T07:55:16;3.83;;;2.10;;
20000;SDS011;10161;41.188;-8.642;2024-03-08T07:57:44;4.00;;;2.53;;
20000;SDS011;10161;41.188;-8.642;2024-03-08T08:00:13;3.20;;;2.47;;
20000;SDS011;10161;41.188;-8.642;2024-03-08T08:02:43;4.20;;;2.60;;
20000;SDS011;10161;41.188;-8.642;2024-03-08T08:05:10;2.83;;;2.30;;
20000;SDS011;10161;41.188;-8.642;2024-03-08T08:07:40;3.70;;;2.80;;
20000;SDS011;10161;41.188;-8.642;2024-03-08T08:10:11;2.70;;;2.20;;
20000;SDS011;10161;41.188;-8.642;2024-03-08T08:12:43;4.23;;;2.43;;
20000;SDS011;10161;41.188;-8.642;2024-03-08T08:15:11;4.53;;;3.27;;
20000;SDS011;10161;41.188;-8.642;2024-03-08T08:17:38;3.70;;;3.00;;
20000;SDS011;10161;41.188;-8.642;2024-03-08T08:20:05;3.73;;;2.77;;
20000;SDS011;10161;41.188;-8.642;2024-03-08T08:22:33;4.70;;;3.37;;
20000;SDS011;10161;41.188;-8.642;2024-03-08T08:25:01;4.30;;;3.00;;
20000;SDS011;10161;41.188;-8.642;2024-03-08T08:27:28;3.30;;;2.50;;
20000;SDS011;10161;41.188;-8.642;2024-03-08T08:29:55;3.20;;;2.50;;
20000;SDS011;10161;41.188;-8.642;2024-03-08T08:32:22;2.80;;;2.30;;
20000;SDS011;10161;41.188;-8.642;2024-03-08T08:34:50;2.97;;;2.40;;
20000;SDS011;10161;41.188;-8.642;2024-03-08T08:37:17;2.83;;;2.10;;
20000;SDS011;10161;41.188;-8.642;2024-03-08T08:39:42;4.17;;;2.93;;
20000;SDS011;10161;41.188;-8.642;2024-03-08T08:42:11;3.13;;;2.63;;
20000;SDS011;10161;41.188;-8.642;2024-03-08T08:44:38;3.23;;;2.33;;
20000;SDS011;10161;41.188;-8.642;2024-03-08T08:47:05;3.93;;;2.60;;
20000;SDS011;10161;41.188;-8.642;2024-03-08T08:49:32;10.07;;;3.67;;
20000;SDS011;10161;41.188;-8.642;2024-03-08T08:52:00;13.40;;;5.13;;
20000;SDS011;10161;41.188;-8.642;2024-03-08T08:54:28;10.50;;;5.23;;
20000;SDS011;10161;41.188;-8.642;2024-03-08T08:56:56;8.90;;;4.73;;
20000;SDS011;10161;41.188;-8.642;2024-03-08T08:59:25;12.20;;;4.63;;
20000;SDS011;10161;41.188;-8.642;2024-03-08T09:01:52;14.20;;;5.60;;
20000;SDS011;10161;41.188;-8.642;2024-03-08T09:04:19;17.40;;;6.13;;
20000;SDS011;10161;41.188;-8.642;2024-03-08T09:06:48;38.42;;;9.40;;
20000;SDS011;10161;41.188;-8.642;2024-03-08T09:09:15;16.97;;;6.63;;
20000;SDS011;10161;41.188;-8.642;2024-03-08T09:11:42;17.23;;;6.40;;
20000;SDS011;10161;41.188;-8.642;2024-03-08T09:14:09;16.57;;;5.87;;
20000;SDS011;10161;41.188;-8.642;2024-03-08T09:16:38;22.87;;;6.73;;
20000;SDS011;10161;41.188;-8.642;2024-03-08T09:19:06;13.60;;;4.97;;
20000;SDS011;10161;41.188;-8.642;2024-03-08T09:21:36;16.03;;;5.60;;
20000;SDS011;10161;41.188;-8.642;2024-03-08T09:24:04;12.23;;;4.90;;
20000;SDS011;10161;41.188;-8.642;2024-03-08T09:26:32;11.03;;;5.13;;
20000;SDS011;10161;41.188;-8.642;2024-03-08T09:28:59;12.20;;;4.80;;
20000;SDS011;10161;41.188;-8.642;2024-03-08T09:31:26;7.27;;;4.50;;
20000;SDS011;10161;41.188;-8.642;2024-03-08T09:33:55;9.03;;;4.33;;
20000;SDS011;10161;41.188;-8.642;2024-03-08T09:36:22;12.67;;;4.60;;
20000;SDS011;10161;41.188;-8.642;2024-03-08T09:38:50;8.27;;;4.37;;
20000;SDS011;10161;41.188;-8.642;2024-03-08T09:41:18;12.70;;;4.97;;
20000;SDS011;10161;41.188;-8.642;2024-03-08T09:43:45;10.40;;;4.30;;
20000;SDS011;10161;41.188;-8.642;2024-03-08T09:46:13;8.97;;;4.77;;
20000;SDS011;10161;41.188;-8.642;2024-03-08T09:48:41;8.37;;;4.53;;
20000;SDS011;10161;41.188;-8.642;2024-03-08T09:51:09;6.00;;;4.33;;
20000;SDS011;10161;41.188;-8.642;2024-03-08T09:53:40;7.63;;;3.93;;
20000;SDS011;10161;41.188;-8.642;2024-03-08T09:56:07;6.53;;;3.97;;
20000;SDS011;10161;41.188;-8.642;2024-03-08T09:58:34;6.47;;;4.13;;
20000;SDS011;10161;41.188;-8.642;2024-03-08T10:01:29;12.27;;;3.57;;
20000;SDS011;10161;41.188;-8.642;2024-03-08T10:03:56;8.23;;;3.97;;
20000;SDS011;10161;41.188;-8.642;2024-03-08T10:06:25;6.33;;;3.47;;
20000;SDS011;10161;41.188;-8.642;2024-03-08T10:08:52;5.80;;;3.37;;
20000;SDS011;10161;41.188;-8.642;2024-03-08T10:11:19;10.27;;;4.13;;
20000;SDS011;10161;41.188;-8.642;2024-03-08T10:13:47;8.10;;;3.60;;
20000;SDS011;10161;41.188;-8.642;2024-03-08T10:16:14;4.00;;;3.13;;
20000;SDS011;10161;41.188;-8.642;2024-03-08T10:18:42;6.20;;;3.60;;
20000;SDS011;10161;41.188;-8.642;2024-03-08T10:21:09;5.70;;;3.33;;
20000;SDS011;10161;41.188;-8.642;2024-03-08T10:23:37;4.37;;;2.80;;
20000;SDS011;10161;41.188;-8.642;2024-03-08T10:26:11;3.20;;;2.63;;
20000;SDS011;10161;41.188;-8.642;2024-03-08T10:28:40;4.00;;;2.70;;
20000;SDS011;10161;41.188;-8.642;2024-03-08T10:31:08;3.40;;;2.53;;
20000;SDS011;10161;41.188;-8.642;2024-03-08T10:33:35;4.50;;;3.00;;
20000;SDS011;10161;41.188;-8.642;2024-03-08T10:36:03;3.70;;;2.60;;
20000;SDS011;10161;41.188;-8.642;2024-03-08T10:38:33;3.97;;;2.60;;
20000;SDS011;10161;41.188;-8.642;2024-03-08T10:41:03;3.97;;;2.80;;
20000;SDS011;10161;41.188;-8.642;2024-03-08T10:43:32;4.80;;;2.80;;
20000;SDS011;10161;41.188;-8.642;2024-03-08T10:46:08;4.37;;;2.90;;
20000;SDS011;10161;41.188;-8.642;2024-03-08T10:48:43;3.03;;;2.30;;
20000;SDS011;10161;41.188;-8.642;2024-03-08T10:51:11;4.10;;;3.10;;
20000;SDS011;10161;41.188;-8.642;2024-03-08T10:53:38;4.70;;;2.90;;
20000;SDS011;10161;41.188;-8.642;2024-03-08T10:56:08;3.97;;;2.30;;
20000;SDS011;10161;41.188;-8.642;2024-03-08T10:58:35;3.60;;;2.40;;
20000;SDS011;10161;41.188;-8.642;2024-03-08T11:01:03;3.40;;;2.70;;
20000;SDS011;10161;41.188;-8.642;2024-03-08T11:03:46;3.20;;;2.53;;
20000;SDS011;10161;41.188;-8.642;2024-03-08T11:06:18;3.53;;;2.47;;
20000;SDS011;10161;41.188;-8.642;2024-03-08T11:08:48;2.70;;;2.20;;
20000;SDS011;10161;41.188;-8.642;2024-03-08T11:11:27;3.17;;;2.50;;
20000;SDS011;10161;41.188;-8.642;2024-03-08T11:13:56;2.60;;;2.20;;
20000;SDS011;10161;41.188;-8.642;2024-03-08T11:16:36;2.40;;;2.10;;
20000;SDS011;10161;41.188;-8.642;2024-03-08T11:19:06;3.40;;;2.40;;
20000;SDS011;10161;41.188;-8.642;2024-03-08T11:21:51;3.77;;;2.07;;
20000;SDS011;10161;41.188;-8.642;2024-03-08T11:24:23;3.33;;;2.30;;
20000;SDS011;10161;41.188;-8.642;2024-03-08T11:26:55;2.53;;;1.90;;
20000;SDS011;10161;41.188;-8.642;2024-03-08T11:29:34;5.13;;;2.20;;
20000;SDS011;10161;41.188;-8.642;2024-03-08T11:32:05;3.47;;;2.30;;
20000;SDS011;10161;41.188;-8.642;2024-03-08T11:34:33;5.17;;;2.17;;
20000;SDS011;10161;41.188;-8.642;2024-03-08T11:37:00;3.63;;;2.30;;
20000;SDS011;10161;41.188;-8.642;2024-03-08T11:39:29;4.13;;;2.10;;
20000;SDS011;10161;41.188;-8.642;2024-03-08T11:41:58;3.20;;;1.90;;
20000;SDS011;10161;41.188;-8.642;2024-03-08T11:44:26;2.83;;;2.17;;
20000;SDS011;10161;41.188;-8.642;2024-03-08T11:46:54;1.90;;;1.70;;
20000;SDS011;10161;41.188;-8.642;2024-03-08T11:49:21;2.93;;;1.90;;
20000;SDS011;10161;41.188;-8.642;2024-03-08T11:51:51;2.37;;;1.90;;
20000;SDS011;10161;41.188;-8.642;2024-03-08T11:54:18;2.77;;;2.37;;
20000;SDS011;10161;41.188;-8.642;2024-03-08T11:56:46;2.60;;;2.10;;
20000;SDS011;10161;41.188;-8.642;2024-03-08T11:59:15;1.93;;;1.83;;
20000;SDS011;10161;41.188;-8.642;2024-03-08T12:01:42;2.57;;;2.00;;
20000;SDS011;10161;41.188;-8.642;2024-03-08T12:04:11;1.90;;;1.70;;
20000;SDS011;10161;41.188;-8.642;2024-03-08T12:06:39;2.40;;;2.07;;
20000;SDS011;10161;41.188;-8.642;2024-03-08T12:09:09;2.37;;;2.03;;
20000;SDS011;10161;41.188;-8.642;2024-03-08T12:11:38;2.23;;;1.93;;
20000;SDS011;10161;41.188;-8.642;2024-03-08T12:14:06;2.47;;;1.80;;
20000;SDS011;10161;41.188;-8.642;2024-03-08T12:16:34;3.90;;;2.20;;
20000;SDS011;10161;41.188;-8.642;2024-03-08T12:19:03;2.50;;;1.83;;
20000;SDS011;10161;41.188;-8.642;2024-03-08T12:21:31;1.80;;;1.50;;
20000;SDS011;10161;41.188;-8.642;2024-03-08T12:24:03;3.03;;;2.07;;
20000;SDS011;10161;41.188;-8.642;2024-03-08T12:26:34;2.93;;;2.00;;
20000;SDS011;10161;41.188;-8.642;2024-03-08T12:29:14;2.20;;;1.83;;
20000;SDS011;10161;41.188;-8.642;2024-03-08T12:31:44;2.00;;;1.80;;
20000;SDS011;10161;41.188;-8.642;2024-03-08T12:34:12;2.33;;;2.10;;
20000;SDS011;10161;41.188;-8.642;2024-03-08T12:36:46;2.90;;;1.60;;
20000;SDS011;10161;41.188;-8.642;2024-03-08T12:39:15;1.77;;;1.53;;
20000;SDS011;10161;41.188;-8.642;2024-03-08T12:41:47;2.90;;;2.07;;
20000;SDS011;10161;41.188;-8.642;2024-03-08T12:44:14;2.13;;;1.63;;
20000;SDS011;10161;41.188;-8.642;2024-03-08T12:46:42;2.20;;;1.90;;
20000;SDS011;10161;41.188;-8.642;2024-03-08T12:49:13;1.70;;;1.53;;
20000;SDS011;10161;41.188;-8.642;2024-03-08T12:51:42;2.83;;;1.80;;
20000;SDS011;10161;41.188;-8.642;2024-03-08T12:54:10;2.60;;;1.70;;
20000;SDS011;10161;41.188;-8.642;2024-03-08T12:56:37;1.87;;;1.67;;
20000;SDS011;10161;41.188;-8.642;2024-03-08T12:59:05;1.93;;;1.73;;
20000;SDS011;10161;41.188;-8.642;2024-03-08T13:01:34;3.00;;;1.70;;
20000;SDS011;10161;41.188;-8.642;2024-03-08T13:04:04;1.70;;;1.57;;
20000;SDS011;10161;41.188;-8.642;2024-03-08T13:06:31;2.17;;;1.70;;
20000;SDS011;10161;41.188;-8.642;2024-03-08T13:08:58;1.80;;;1.40;;
20000;SDS011;10161;41.188;-8.642;2024-03-08T13:11:30;1.50;;;1.40;;
20000;SDS011;10161;41.188;-8.642;2024-03-08T13:13:59;1.90;;;1.50;;
20000;SDS011;10161;41.188;-8.642;2024-03-08T13:16:26;2.20;;;1.50;;
20000;SDS011;10161;41.188;-8.642;2024-03-08T13:18:54;2.00;;;1.60;;
20000;SDS011;10161;41.188;-8.642;2024-03-08T13:21:24;1.47;;;1.17;;
20000;SDS011;10161;41.188;-8.642;2024-03-08T13:23:51;2.13;;;1.77;;
20000;SDS011;10161;41.188;-8.642;2024-03-08T13:26:18;3.00;;;1.67;;
20000;SDS011;10161;41.188;-8.642;2024-03-08T13:28:45;4.20;;;1.67;;
20000;SDS011;10161;41.188;-8.642;2024-03-08T13:31:13;2.97;;;1.60;;
20000;SDS011;10161;41.188;-8.642;2024-03-08T13:33:41;2.20;;;1.83;;
20000;SDS011;10161;41.188;-8.642;2024-03-08T13:36:10;2.53;;;1.83;;
20000;SDS011;10161;41.188;-8.642;2024-03-08T13:38:42;2.17;;;1.50;;
20000;SDS011;10161;41.188;-8.642;2024-03-08T13:41:10;2.00;;;1.37;;
20000;SDS011;10161;41.188;-8.642;2024-03-08T13:43:39;3.40;;;1.50;;
20000;SDS011;10161;41.188;-8.642;2024-03-08T13:46:07;2.67;;;1.67;;
20000;SDS011;10161;41.188;-8.642;2024-03-08T13:48:35;3.07;;;1.57;;
20000;SDS011;10161;41.188;-8.642;2024-03-08T13:51:02;2.70;;;1.70;;
20000;SDS011;10161;41.188;-8.642;2024-03-08T13:53:31;2.43;;;1.53;;
20000;SDS011;10161;41.188;-8.642;2024-03-08T13:55:59;5.27;;;2.60;;
20000;SDS011;10161;41.188;-8.642;2024-03-08T13:58:27;3.80;;;1.93;;
20000;SDS011;10161;41.188;-8.642;2024-03-08T14:00:54;2.40;;;1.43;;
20000;SDS011;10161;41.188;-8.642;2024-03-08T14:03:21;2.60;;;1.83;;
20000;SDS011;10161;41.188;-8.642;2024-03-08T14:05:51;4.97;;;1.60;;
20000;SDS011;10161;41.188;-8.642;2024-03-08T14:08:20;4.23;;;2.10;;
20000;SDS011;10161;41.188;-8.642;2024-03-08T14:10:47;2.47;;;1.77;;
20000;SDS011;10161;41.188;-8.642;2024-03-08T14:13:17;3.43;;;1.87;;
20000;SDS011;10161;41.188;-8.642;2024-03-08T14:15:45;4.30;;;1.97;;
20000;SDS011;10161;41.188;-8.642;2024-03-08T14:18:13;4.73;;;1.90;;
20000;SDS011;10161;41.188;-8.642;2024-03-08T14:20:40;5.13;;;1.97;;
20000;SDS011;10161;41.188;-8.642;2024-03-08T14:23:08;3.07;;;1.90;;
20000;SDS011;10161;41.188;-8.642;2024-03-08T14:25:35;4.10;;;1.90;;
20000;SDS011;10161;41.188;-8.642;2024-03-08T14:28:02;3.77;;;2.20;;
20000;SDS011;10161;41.188;-8.642;2024-03-08T14:30:34;4.37;;;2.07;;
20000;SDS011;10161;41.188;-8.642;2024-03-08T14:33:03;4.90;;;2.87;;
20000;SDS011;10161;41.188;-8.642;2024-03-08T14:35:33;6.47;;;3.73;;
20000;SDS011;10161;41.188;-8.642;2024-03-08T14:38:00;10.07;;;5.77;;
20000;SDS011;10161;41.188;-8.642;2024-03-08T14:40:27;15.80;;;9.00;;